Terminal Aerodrome Forecast
Issued by NWS

Home | Current Version | Previous Version | Text Only | Print | Product List | Glossary Off
Versions: 1 2 3 4 5 6 7 8 9 10 11 12

000
FTUS43 KBIS 210500
TAFDIK
TAF
KDIK 210521Z 2106/2206 15009KT P6SM SKC
     FM211800 17013G21KT P6SM SCT250
     FM220000 19008KT P6SM BKN200=

USA.gov is the U.S. government's official web portal to all federal, state and local government web resources and services.